Time;durP1;ratioP1;P1;durP2;ratioP2;P2;SDS_P1;SDS_P2;PMS_P1;PMS_P2;Temp;Humidity;BMP_temperature;BMP_pressure;BME280_temperature;BME280_humidity;BME280_pressure;Samples;Min_cycle;Max_cycle;Signal;HPM_P1;HPM_P2
2023/09/23 00:01:58;;;;;;;0.65;0.65;;;;;;;;;;5117854;27;20227;-91
2023/09/23 00:04:26;;;;;;;0.68;0.68;;;;;;;;;;5118362;27;20286;-92
2023/09/23 00:06:53;;;;;;;0.85;0.70;;;;;;;;;;5118940;27;20211;-92
2023/09/23 00:09:22;;;;;;;0.80;0.77;;;;;;;;;;5117133;27;20284;-91
2023/09/23 00:11:50;;;;;;;0.93;0.93;;;;;;;;;;5121082;28;20259;-93
2023/09/23 00:14:18;;;;;;;0.80;0.80;;;;;;;;;;5117991;28;20275;-92
2023/09/23 00:16:46;;;;;;;0.88;0.88;;;;;;;;;;5120160;28;20238;-92
2023/09/23 00:19:15;;;;;;;0.60;0.60;;;;;;;;;;5118156;27;20301;-92
2023/09/23 00:21:43;;;;;;;0.70;0.70;;;;;;;;;;5118469;28;20226;-92
2023/09/23 00:24:11;;;;;;;0.68;0.68;;;;;;;;;;5115473;28;20230;-92
2023/09/23 00:26:40;;;;;;;0.70;0.70;;;;;;;;;;5117469;28;20227;-93
2023/09/23 00:29:08;;;;;;;0.80;0.70;;;;;;;;;;5118006;28;20238;-92
2023/09/23 00:31:36;;;;;;;0.60;0.60;;;;;;;;;;5118180;28;20207;-93
2023/09/23 00:34:04;;;;;;;0.80;0.80;;;;;;;;;;5120026;28;20214;-91
2023/09/23 00:36:31;;;;;;;0.70;0.70;;;;;;;;;;5118119;28;20238;-91
2023/09/23 00:39:03;;;;;;;1.08;0.98;;;;;;;;;;5117597;28;20239;-93
2023/09/23 00:41:31;;;;;;;0.80;0.80;;;;;;;;;;5117009;28;20220;-91
2023/09/23 00:44:01;;;;;;;0.73;0.73;;;;;;;;;;5116541;28;20268;-91
2023/09/23 00:46:29;;;;;;;0.88;0.88;;;;;;;;;;5116733;28;20226;-92
2023/09/23 00:48:56;;;;;;;1.13;0.90;;;;;;;;;;5116438;28;20279;-92
2023/09/23 00:51:24;;;;;;;0.73;0.65;;;;;;;;;;5117213;28;20287;-92
2023/09/23 00:53:52;;;;;;;0.90;0.70;;;;;;;;;;5116666;28;20248;-91
2023/09/23 00:56:23;;;;;;;0.90;0.90;;;;;;;;;;5116213;28;20212;-91
2023/09/23 00:58:50;;;;;;;0.90;0.90;;;;;;;;;;5117474;28;20216;-92
2023/09/23 01:01:21;;;;;;;0.60;0.60;;;;;;;;;;5116444;28;20620;-92
2023/09/23 01:03:48;;;;;;;0.70;0.70;;;;;;;;;;5117105;28;20279;-92
2023/09/23 01:06:16;;;;;;;1.30;0.65;;;;;;;;;;5116007;28;20214;-92
2023/09/23 01:08:45;;;;;;;0.85;0.75;;;;;;;;;;5115462;28;20723;-91
2023/09/23 01:11:13;;;;;;;0.68;0.60;;;;;;;;;;5114801;28;20657;-91
2023/09/23 01:13:42;;;;;;;0.60;0.60;;;;;;;;;;5115307;28;20206;-92
2023/09/23 01:16:12;;;;;;;0.65;0.65;;;;;;;;;;5115889;28;20276;-91
2023/09/23 01:18:45;;;;;;;0.70;0.70;;;;;;;;;;5118042;27;20219;-91
2023/09/23 01:21:12;;;;;;;0.75;0.70;;;;;;;;;;5117460;28;20200;-93
2023/09/23 01:23:44;;;;;;;0.98;0.60;;;;;;;;;;5114990;27;20207;-91
2023/09/23 01:26:11;;;;;;;0.50;0.50;;;;;;;;;;5114836;28;20199;-92
2023/09/23 01:28:39;;;;;;;1.23;1.05;;;;;;;;;;5115039;27;20227;-92
2023/09/23 01:31:07;;;;;;;0.60;0.60;;;;;;;;;;5114468;27;20210;-92
2023/09/23 01:33:35;;;;;;;0.73;0.70;;;;;;;;;;5114433;27;20623;-92
2023/09/23 01:36:03;;;;;;;0.60;0.60;;;;;;;;;;5115021;27;20200;-93
2023/09/23 01:38:31;;;;;;;0.68;0.68;;;;;;;;;;5113819;28;20216;-93
2023/09/23 01:41:00;;;;;;;0.68;0.68;;;;;;;;;;5113875;27;20638;-91
2023/09/23 01:43:29;;;;;;;0.50;0.50;;;;;;;;;;5113449;27;20326;-91
2023/09/23 01:46:02;;;;;;;0.50;0.50;;;;;;;;;;5113490;28;20294;-91
2023/09/23 01:48:30;;;;;;;0.45;0.45;;;;;;;;;;5113331;28;20228;-92
2023/09/23 01:50:59;;;;;;;0.85;0.68;;;;;;;;;;5114750;28;20204;-90
2023/09/23 01:53:27;;;;;;;1.00;1.00;;;;;;;;;;5114275;28;20199;-91
2023/09/23 01:55:55;;;;;;;0.70;0.70;;;;;;;;;;5116431;28;20192;-93
2023/09/23 01:58:24;;;;;;;0.88;0.70;;;;;;;;;;5117884;28;20266;-92
2023/09/23 02:00:54;;;;;;;0.65;0.65;;;;;;;;;;5117999;28;20461;-92
2023/09/23 02:03:22;;;;;;;0.60;0.60;;;;;;;;;;5117762;28;20597;-92
2023/09/23 02:05:50;;;;;;;0.90;0.90;;;;;;;;;;5118221;28;20213;-93
2023/09/23 02:08:18;;;;;;;2.15;0.75;;;;;;;;;;5119151;28;20218;-92
2023/09/23 02:10:47;;;;;;;1.42;1.08;;;;;;;;;;5117408;28;20283;-92
2023/09/23 02:13:15;;;;;;;0.90;0.90;;;;;;;;;;5117957;28;20245;-91
2023/09/23 02:15:45;;;;;;;1.52;1.02;;;;;;;;;;5117838;28;20199;-91
2023/09/23 02:18:14;;;;;;;0.95;0.80;;;;;;;;;;5117161;28;20207;-90
2023/09/23 02:20:43;;;;;;;1.10;1.10;;;;;;;;;;5117791;28;20834;-91
2023/09/23 02:23:11;;;;;;;1.38;1.20;;;;;;;;;;5116772;28;20219;-89
2023/09/23 02:25:38;;;;;;;0.80;0.80;;;;;;;;;;5116965;28;20226;-91
2023/09/23 02:28:06;;;;;;;0.82;0.82;;;;;;;;;;5116186;28;20287;-91
2023/09/23 02:30:34;;;;;;;0.70;0.70;;;;;;;;;;5116842;27;20191;-91
2023/09/23 02:33:04;;;;;;;0.88;0.82;;;;;;;;;;5117245;28;20267;-92
2023/09/23 02:35:34;;;;;;;0.80;0.80;;;;;;;;;;5117655;28;20207;-93
2023/09/23 02:38:02;;;;;;;0.60;0.60;;;;;;;;;;5127405;28;20210;-91
2023/09/23 02:40:31;;;;;;;0.60;0.60;;;;;;;;;;5117295;28;20206;-91
2023/09/23 02:42:59;;;;;;;0.80;0.80;;;;;;;;;;5116675;28;20265;-92
2023/09/23 02:45:27;;;;;;;0.68;0.68;;;;;;;;;;5116302;28;20245;-92
2023/09/23 02:47:55;;;;;;;0.80;0.80;;;;;;;;;;5123210;28;20210;-90
2023/09/23 02:50:24;;;;;;;0.75;0.70;;;;;;;;;;5129030;27;20247;-93
2023/09/23 02:52:51;;;;;;;0.70;0.70;;;;;;;;;;5118508;28;20221;-93
2023/09/23 02:55:19;;;;;;;0.60;0.60;;;;;;;;;;5116842;27;20283;-92
2023/09/23 02:57:50;;;;;;;0.80;0.80;;;;;;;;;;5116364;27;20196;-93
2023/09/23 03:00:20;;;;;;;0.70;0.70;;;;;;;;;;5116657;27;20228;-92
2023/09/23 03:02:56;;;;;;;0.90;0.90;;;;;;;;;;5117366;27;20242;-93
2023/09/23 03:05:28;;;;;;;0.80;0.80;;;;;;;;;;5116231;28;20286;-93
2023/09/23 03:07:58;;;;;;;0.47;0.47;;;;;;;;;;5115607;28;20196;-93
2023/09/23 03:10:39;;;;;;;1.83;1.08;;;;;;;;;;5116061;27;20252;-92
2023/09/23 03:13:07;;;;;;;0.70;0.70;;;;;;;;;;5115810;27;20256;-93
2023/09/23 03:15:44;;;;;;;0.70;0.70;;;;;;;;;;5115754;28;20203;-92
2023/09/23 03:18:14;;;;;;;0.70;0.70;;;;;;;;;;5115790;28;20245;-91
2023/09/23 03:20:43;;;;;;;0.70;0.70;;;;;;;;;;5115310;28;20222;-91
2023/09/23 03:23:12;;;;;;;0.70;0.70;;;;;;;;;;5115051;27;20216;-92
2023/09/23 03:25:46;;;;;;;0.82;0.65;;;;;;;;;;5115273;28;20557;-91
2023/09/23 03:28:15;;;;;;;0.80;0.68;;;;;;;;;;5115158;27;20286;-91
2023/09/23 03:30:44;;;;;;;0.90;0.90;;;;;;;;;;5115540;28;20316;-92
2023/09/23 03:33:12;;;;;;;0.60;0.60;;;;;;;;;;5115537;28;20192;-91
2023/09/23 03:35:40;;;;;;;0.85;0.85;;;;;;;;;;5118751;28;20191;-91
2023/09/23 03:38:09;;;;;;;0.82;0.82;;;;;;;;;;5115365;28;20286;-90
2023/09/23 03:40:38;;;;;;;0.70;0.70;;;;;;;;;;5115222;28;20207;-90
2023/09/23 03:43:06;;;;;;;1.10;1.00;;;;;;;;;;5115039;28;20228;-91
2023/09/23 03:45:35;;;;;;;1.10;0.82;;;;;;;;;;5116026;28;20211;-90
2023/09/23 03:48:04;;;;;;;0.80;0.80;;;;;;;;;;5115837;27;20198;-92
2023/09/23 03:50:32;;;;;;;0.80;0.80;;;;;;;;;;5115266;28;20195;-92
2023/09/23 03:53:00;;;;;;;0.77;0.77;;;;;;;;;;5114856;27;20206;-91
2023/09/23 03:55:30;;;;;;;0.70;0.70;;;;;;;;;;5108717;28;20200;-88
2023/09/23 03:57:57;;;;;;;0.70;0.70;;;;;;;;;;5102367;28;20280;-91
2023/09/23 04:00:27;;;;;;;0.65;0.65;;;;;;;;;;5103532;28;20234;-90
2023/09/23 04:02:55;;;;;;;1.00;1.00;;;;;;;;;;5103104;28;20249;-89
2023/09/23 04:05:25;;;;;;;0.70;0.70;;;;;;;;;;5102170;28;20218;-90
2023/09/23 04:07:53;;;;;;;1.20;0.80;;;;;;;;;;5103388;28;20303;-93
2023/09/23 04:10:24;;;;;;;1.50;1.40;;;;;;;;;;5107069;28;20633;-89
2023/09/23 04:12:54;;;;;;;0.68;0.68;;;;;;;;;;5105344;28;20202;-88
2023/09/23 04:15:22;;;;;;;0.77;0.77;;;;;;;;;;5127878;28;20202;-88
2023/09/23 04:17:49;;;;;;;0.90;0.90;;;;;;;;;;5128425;27;20195;-88
2023/09/23 04:20:18;;;;;;;0.95;0.93;;;;;;;;;;5129211;27;20238;-89
2023/09/23 04:22:48;;;;;;;0.80;0.80;;;;;;;;;;5108393;28;20724;-90
2023/09/23 04:25:16;;;;;;;0.68;0.68;;;;;;;;;;5102022;28;20200;-90
2023/09/23 04:27:43;;;;;;;0.68;0.68;;;;;;;;;;5101424;28;20199;-90
2023/09/23 04:30:15;;;;;;;1.05;0.90;;;;;;;;;;5102382;28;20228;-91
2023/09/23 04:32:43;;;;;;;0.73;0.73;;;;;;;;;;5103079;28;21124;-91
2023/09/23 04:35:12;;;;;;;0.70;0.70;;;;;;;;;;5103337;28;20206;-89
2023/09/23 04:37:40;;;;;;;0.85;0.85;;;;;;;;;;5102827;28;20335;-91
2023/09/23 04:40:10;;;;;;;1.00;1.00;;;;;;;;;;5101960;28;20229;-90
2023/09/23 04:42:38;;;;;;;1.00;1.00;;;;;;;;;;5101592;28;20520;-89
2023/09/23 04:45:07;;;;;;;0.68;0.68;;;;;;;;;;5102018;28;20223;-90
2023/09/23 04:47:37;;;;;;;0.70;0.70;;;;;;;;;;5099935;28;20673;-90
2023/09/23 04:50:08;;;;;;;0.85;0.85;;;;;;;;;;5100536;28;20689;-91
2023/09/23 04:52:36;;;;;;;0.90;0.90;;;;;;;;;;5100238;28;20215;-91
2023/09/23 04:55:06;;;;;;;0.80;0.80;;;;;;;;;;5099728;28;20200;-89
2023/09/23 04:57:34;;;;;;;0.90;0.90;;;;;;;;;;5100341;28;20223;-89
2023/09/23 05:00:03;;;;;;;1.63;1.23;;;;;;;;;;5099116;28;20696;-90
2023/09/23 05:02:31;;;;;;;1.10;1.00;;;;;;;;;;5100183;28;21335;-89
2023/09/23 05:05:00;;;;;;;1.00;1.00;;;;;;;;;;5099551;28;20231;-89
2023/09/23 05:07:28;;;;;;;0.80;0.80;;;;;;;;;;5100197;28;21264;-90
2023/09/23 05:09:56;;;;;;;0.90;0.90;;;;;;;;;;5099172;28;20219;-90
2023/09/23 05:12:24;;;;;;;0.90;0.90;;;;;;;;;;5099936;28;20196;-92
2023/09/23 05:14:52;;;;;;;0.98;0.98;;;;;;;;;;5099631;28;20207;-90
2023/09/23 05:17:26;;;;;;;0.80;0.80;;;;;;;;;;5099790;28;20200;-90
2023/09/23 05:19:53;;;;;;;0.90;0.90;;;;;;;;;;5099162;28;20277;-90
2023/09/23 05:22:22;;;;;;;0.88;0.88;;;;;;;;;;5100144;28;20218;-90
2023/09/23 05:24:56;;;;;;;0.70;0.70;;;;;;;;;;5099963;28;20227;-90
2023/09/23 05:27:24;;;;;;;0.80;0.80;;;;;;;;;;5109667;28;21160;-90
2023/09/23 05:29:53;;;;;;;0.90;0.90;;;;;;;;;;5100656;28;20238;-89
2023/09/23 05:32:21;;;;;;;0.80;0.80;;;;;;;;;;5103157;28;20206;-90
2023/09/23 05:34:51;;;;;;;1.10;1.10;;;;;;;;;;5103796;28;20211;-91
2023/09/23 05:37:18;;;;;;;1.83;1.35;;;;;;;;;;5103419;28;20569;-90
2023/09/23 05:39:47;;;;;;;2.90;1.30;;;;;;;;;;5103359;28;21356;-89
2023/09/23 05:42:15;;;;;;;0.90;0.90;;;;;;;;;;5104094;28;20203;-89
2023/09/23 05:44:44;;;;;;;0.77;0.77;;;;;;;;;;5103258;28;20235;-89
2023/09/23 05:47:11;;;;;;;1.30;1.20;;;;;;;;;;5102636;28;20758;-90
2023/09/23 05:49:40;;;;;;;1.05;1.05;;;;;;;;;;5102646;28;20676;-89
2023/09/23 05:52:08;;;;;;;1.40;1.30;;;;;;;;;;5103097;28;20252;-88
2023/09/23 05:54:35;;;;;;;1.50;1.40;;;;;;;;;;5102943;28;20214;-89
2023/09/23 05:57:05;;;;;;;1.58;1.48;;;;;;;;;;5112464;28;20595;-90
2023/09/23 05:59:34;;;;;;;1.05;1.05;;;;;;;;;;5116081;28;20219;-91
2023/09/23 06:02:06;;;;;;;1.20;1.10;;;;;;;;;;5117144;28;20622;-91
2023/09/23 06:04:34;;;;;;;1.17;1.10;;;;;;;;;;5117780;28;20226;-89
2023/09/23 06:07:02;;;;;;;1.55;1.45;;;;;;;;;;5117124;28;20385;-91
2023/09/23 06:09:29;;;;;;;1.48;1.38;;;;;;;;;;5126777;28;20530;-91
2023/09/23 06:11:57;;;;;;;3.25;1.50;;;;;;;;;;5117311;28;20205;-90
2023/09/23 06:14:26;;;;;;;1.35;1.25;;;;;;;;;;5114925;28;20219;-91
2023/09/23 06:16:53;;;;;;;1.30;1.20;;;;;;;;;;5109797;28;20211;-90
2023/09/23 06:19:21;;;;;;;1.27;1.17;;;;;;;;;;5115890;28;20250;-90
2023/09/23 06:21:49;;;;;;;1.30;1.30;;;;;;;;;;5116021;28;20223;-91
2023/09/23 06:24:16;;;;;;;1.40;1.30;;;;;;;;;;5116305;28;20204;-91
2023/09/23 06:26:44;;;;;;;1.60;1.50;;;;;;;;;;5116302;28;20286;-89
2023/09/23 06:29:14;;;;;;;2.42;1.25;;;;;;;;;;5115990;27;20718;-91
2023/09/23 06:31:43;;;;;;;1.25;0.98;;;;;;;;;;5116744;28;20733;-91
2023/09/23 06:34:10;;;;;;;2.00;1.90;;;;;;;;;;5115999;27;20219;-90
2023/09/23 06:36:38;;;;;;;1.30;1.15;;;;;;;;;;5115927;27;20282;-89
2023/09/23 06:39:05;;;;;;;1.40;1.30;;;;;;;;;;5115858;28;20295;-90
2023/09/23 06:41:33;;;;;;;1.10;1.00;;;;;;;;;;5114962;28;20195;-90
2023/09/23 06:44:00;;;;;;;1.40;1.30;;;;;;;;;;5116829;28;20210;-91
2023/09/23 06:46:28;;;;;;;1.00;1.00;;;;;;;;;;5126060;27;20242;-91
2023/09/23 06:48:57;;;;;;;2.35;1.35;;;;;;;;;;5116095;28;20226;-91
2023/09/23 06:51:27;;;;;;;2.72;1.45;;;;;;;;;;5115643;28;20618;-91
2023/09/23 06:53:54;;;;;;;0.80;0.80;;;;;;;;;;5115723;27;20691;-90
2023/09/23 06:56:22;;;;;;;0.90;0.90;;;;;;;;;;5115936;28;20200;-91
2023/09/23 06:58:49;;;;;;;1.98;0.98;;;;;;;;;;5117782;28;20311;-91
2023/09/23 07:01:18;;;;;;;0.93;0.80;;;;;;;;;;5116858;27;20635;-91
2023/09/23 07:03:46;;;;;;;1.83;0.88;;;;;;;;;;5116242;28;20200;-93
2023/09/23 07:06:15;;;;;;;1.17;1.10;;;;;;;;;;5115269;27;20306;-91
2023/09/23 07:08:43;;;;;;;2.35;0.93;;;;;;;;;;5114847;28;20298;-91
2023/09/23 07:11:13;;;;;;;0.90;0.90;;;;;;;;;;5115303;28;20291;-92
2023/09/23 07:13:41;;;;;;;0.90;0.90;;;;;;;;;;5115365;28;20196;-90
2023/09/23 07:16:15;;;;;;;1.80;1.42;;;;;;;;;;5115402;28;20687;-90
2023/09/23 07:18:44;;;;;;;0.80;0.80;;;;;;;;;;5115055;28;20268;-89
2023/09/23 07:21:12;;;;;;;0.68;0.68;;;;;;;;;;5115105;28;20282;-90
2023/09/23 07:23:41;;;;;;;4.20;1.13;;;;;;;;;;5115221;28;20209;-90
2023/09/23 07:26:08;;;;;;;0.80;0.80;;;;;;;;;;5115126;28;20572;-91
2023/09/23 07:28:36;;;;;;;2.65;0.88;;;;;;;;;;5115234;28;20693;-91
2023/09/23 07:31:03;;;;;;;0.90;0.90;;;;;;;;;;5115909;28;20202;-91
2023/09/23 07:33:31;;;;;;;1.13;0.93;;;;;;;;;;5115275;28;20200;-91
2023/09/23 07:35:58;;;;;;;0.60;0.60;;;;;;;;;;5116043;28;20282;-92
2023/09/23 07:38:26;;;;;;;1.35;1.13;;;;;;;;;;5115829;28;20294;-92
2023/09/23 07:40:55;;;;;;;1.95;0.93;;;;;;;;;;5116222;28;20203;-92
2023/09/23 07:43:22;;;;;;;0.90;0.90;;;;;;;;;;5114599;28;20196;-91
2023/09/23 07:45:54;;;;;;;2.95;1.23;;;;;;;;;;5114708;28;20255;-91
2023/09/23 07:48:21;;;;;;;1.35;1.25;;;;;;;;;;5114560;28;20298;-92
2023/09/23 07:50:49;;;;;;;1.23;1.15;;;;;;;;;;5115958;28;20200;-92
2023/09/23 07:53:17;;;;;;;0.88;0.88;;;;;;;;;;5114927;28;20227;-91
2023/09/23 07:55:44;;;;;;;1.63;1.10;;;;;;;;;;5115479;28;20199;-91
2023/09/23 07:58:14;;;;;;;1.02;0.75;;;;;;;;;;5114492;28;20196;-90
2023/09/23 08:00:41;;;;;;;0.70;0.63;;;;;;;;;;5115305;28;20733;-90
2023/09/23 08:03:09;;;;;;;0.80;0.80;;;;;;;;;;5116821;28;20202;-92
2023/09/23 08:05:36;;;;;;;1.30;0.65;;;;;;;;;;5120055;28;20216;-91
2023/09/23 08:08:06;;;;;;;0.50;0.50;;;;;;;;;;5115133;28;20282;-91
2023/09/23 08:10:33;;;;;;;1.30;0.88;;;;;;;;;;5114708;28;20204;-91
2023/09/23 08:13:02;;;;;;;1.38;0.93;;;;;;;;;;5114690;28;20290;-91
2023/09/23 08:15:31;;;;;;;1.98;1.05;;;;;;;;;;5115353;28;20235;-94
2023/09/23 08:17:59;;;;;;;0.80;0.80;;;;;;;;;;5114779;27;20290;-91
2023/09/23 08:20:27;;;;;;;10.60;1.35;;;;;;;;;;5114504;28;20235;-91
2023/09/23 08:22:54;;;;;;;3.20;2.03;;;;;;;;;;5114231;27;20200;-91
2023/09/23 08:25:22;;;;;;;0.95;0.77;;;;;;;;;;5114817;27;20642;-92
2023/09/23 08:27:50;;;;;;;1.48;0.70;;;;;;;;;;5113994;27;20287;-90
2023/09/23 08:30:18;;;;;;;1.38;0.70;;;;;;;;;;5114463;27;20235;-90
2023/09/23 08:32:47;;;;;;;1.73;0.95;;;;;;;;;;5114574;28;20229;-92
2023/09/23 08:35:15;;;;;;;0.57;0.57;;;;;;;;;;5113960;27;20204;-92
2023/09/23 08:37:45;;;;;;;1.23;1.13;;;;;;;;;;5114531;27;20267;-92
2023/09/23 08:40:15;;;;;;;0.98;0.70;;;;;;;;;;5113694;27;20223;-91
2023/09/23 08:42:42;;;;;;;0.60;0.60;;;;;;;;;;5114204;27;20215;-91
2023/09/23 08:45:11;;;;;;;0.70;0.68;;;;;;;;;;5113844;28;20206;-91
2023/09/23 08:47:39;;;;;;;1.23;0.70;;;;;;;;;;5113915;28;20311;-91
2023/09/23 08:50:09;;;;;;;0.73;0.73;;;;;;;;;;5114012;28;20258;-91
2023/09/23 08:52:37;;;;;;;0.70;0.70;;;;;;;;;;5113873;28;20203;-91
2023/09/23 08:55:07;;;;;;;1.73;1.33;;;;;;;;;;5113895;28;20259;-94
2023/09/23 08:57:34;;;;;;;0.98;0.80;;;;;;;;;;5126949;28;20192;-89
2023/09/23 09:00:07;;;;;;;0.80;0.80;;;;;;;;;;5137801;28;20254;-90
2023/09/23 09:02:35;;;;;;;0.60;0.60;;;;;;;;;;5138540;28;20205;-89
2023/09/23 09:05:02;;;;;;;1.02;0.80;;;;;;;;;;5137999;28;20191;-90
2023/09/23 09:07:36;;;;;;;1.63;0.80;;;;;;;;;;5135073;28;20242;-91
2023/09/23 09:10:06;;;;;;;0.85;0.50;;;;;;;;;;5114375;28;20287;-91
2023/09/23 09:12:34;;;;;;;1.23;0.95;;;;;;;;;;5113505;28;20203;-91
2023/09/23 09:15:01;;;;;;;0.98;0.85;;;;;;;;;;5114097;28;20579;-92
2023/09/23 09:17:30;;;;;;;1.02;0.80;;;;;;;;;;5113734;28;20276;-91
2023/09/23 09:19:58;;;;;;;1.48;0.90;;;;;;;;;;5113562;28;20250;-92
2023/09/23 09:22:26;;;;;;;0.60;0.60;;;;;;;;;;5113224;28;20278;-91
2023/09/23 09:24:55;;;;;;;2.10;1.25;;;;;;;;;;5113612;28;20217;-92
2023/09/23 09:27:23;;;;;;;0.80;0.80;;;;;;;;;;5113455;28;20600;-92
2023/09/23 09:29:50;;;;;;;0.73;0.73;;;;;;;;;;5113200;28;20306;-90
2023/09/23 09:32:20;;;;;;;1.38;0.60;;;;;;;;;;5113137;28;20269;-93
2023/09/23 09:34:48;;;;;;;1.25;0.60;;;;;;;;;;5113686;28;20604;-91
2023/09/23 09:37:18;;;;;;;0.60;0.60;;;;;;;;;;5113839;28;20195;-92
2023/09/23 09:39:58;;;;;;;1.73;1.00;;;;;;;;;;5113489;28;20222;-91
2023/09/23 09:42:30;;;;;;;0.65;0.50;;;;;;;;;;5113449;28;20196;-92
2023/09/23 09:44:58;;;;;;;1.60;0.70;;;;;;;;;;5112928;28;20200;-91
2023/09/23 09:47:27;;;;;;;0.98;0.70;;;;;;;;;;5113005;28;20270;-92
2023/09/23 09:49:55;;;;;;;1.45;0.90;;;;;;;;;;5115273;27;20223;-92
2023/09/23 09:52:24;;;;;;;1.05;0.80;;;;;;;;;;5113355;28;20202;-93
2023/09/23 09:54:54;;;;;;;0.65;0.60;;;;;;;;;;5112852;27;20673;-92
2023/09/23 09:57:22;;;;;;;0.82;0.80;;;;;;;;;;5123409;27;20234;-91
2023/09/23 09:59:51;;;;;;;2.33;0.82;;;;;;;;;;5112707;27;20257;-92
2023/09/23 10:02:21;;;;;;;0.82;0.82;;;;;;;;;;5113509;28;20192;-91
2023/09/23 10:04:51;;;;;;;3.08;1.05;;;;;;;;;;5113382;28;20550;-93
2023/09/23 10:07:18;;;;;;;1.17;1.05;;;;;;;;;;5113042;27;20223;-93
2023/09/23 10:09:54;;;;;;;0.80;0.80;;;;;;;;;;5112574;28;20306;-91
2023/09/23 10:12:26;;;;;;;1.50;0.80;;;;;;;;;;5112834;27;20203;-92
2023/09/23 10:14:55;;;;;;;2.47;1.02;;;;;;;;;;5114253;28;20206;-92
2023/09/23 10:17:31;;;;;;;0.65;0.65;;;;;;;;;;5124458;28;20796;-91
2023/09/23 10:19:59;;;;;;;0.52;0.52;;;;;;;;;;5127392;28;20227;-92
2023/09/23 10:22:30;;;;;;;0.60;0.60;;;;;;;;;;5122528;28;20276;-92
2023/09/23 10:25:04;;;;;;;1.88;0.82;;;;;;;;;;5118930;28;20208;-93
2023/09/23 10:27:32;;;;;;;0.57;0.55;;;;;;;;;;5117606;28;20220;-93
2023/09/23 10:30:00;;;;;;;1.23;1.23;;;;;;;;;;5117241;28;20302;-92
2023/09/23 10:32:28;;;;;;;2.88;1.02;;;;;;;;;;5116740;27;20264;-93
2023/09/23 10:34:57;;;;;;;0.93;0.70;;;;;;;;;;5115996;28;20729;-93
2023/09/23 10:37:32;;;;;;;0.60;0.60;;;;;;;;;;5116395;28;20625;-93
2023/09/23 10:40:12;;;;;;;1.13;0.98;;;;;;;;;;5116015;28;20597;-92
2023/09/23 10:42:40;;;;;;;1.38;1.05;;;;;;;;;;5115710;28;20219;-92
2023/09/23 10:45:10;;;;;;;0.90;0.80;;;;;;;;;;5116045;28;20242;-92
2023/09/23 10:47:38;;;;;;;0.88;0.63;;;;;;;;;;5115882;28;20715;-89
2023/09/23 10:50:07;;;;;;;0.70;0.70;;;;;;;;;;5116085;27;20302;-91
2023/09/23 10:52:35;;;;;;;0.90;0.90;;;;;;;;;;5115730;28;20283;-92
2023/09/23 10:55:08;;;;;;;0.85;0.85;;;;;;;;;;5115980;27;20228;-92
2023/09/23 10:57:36;;;;;;;1.60;1.00;;;;;;;;;;5115818;28;20653;-90
2023/09/23 11:00:13;;;;;;;0.80;0.80;;;;;;;;;;5115717;28;20258;-93
2023/09/23 11:02:45;;;;;;;0.70;0.70;;;;;;;;;;5116111;28;20191;-93
2023/09/23 11:05:15;;;;;;;1.17;1.00;;;;;;;;;;5115892;28;20207;-91
2023/09/23 11:07:43;;;;;;;1.23;0.80;;;;;;;;;;5115819;28;20696;-93
2023/09/23 11:10:16;;;;;;;2.25;0.80;;;;;;;;;;5115603;28;20288;-93
2023/09/23 11:12:45;;;;;;;1.67;0.80;;;;;;;;;;5122337;28;20200;-92
2023/09/23 11:15:14;;;;;;;1.10;1.10;;;;;;;;;;5116403;28;20263;-92
2023/09/23 11:17:42;;;;;;;4.13;1.10;;;;;;;;;;5116856;28;20196;-93
2023/09/23 11:20:11;;;;;;;0.98;0.90;;;;;;;;;;5116427;27;20224;-90
2023/09/23 11:22:43;;;;;;;1.40;1.00;;;;;;;;;;5116346;28;20257;-92
2023/09/23 11:25:12;;;;;;;1.25;1.05;;;;;;;;;;5116657;28;20183;-92
2023/09/23 11:27:47;;;;;;;0.80;0.80;;;;;;;;;;5115515;28;20212;-92
2023/09/23 11:30:15;;;;;;;1.10;1.10;;;;;;;;;;5116161;28;20323;-93
2023/09/23 11:32:43;;;;;;;0.80;0.80;;;;;;;;;;5115650;28;20199;-92
2023/09/23 11:35:11;;;;;;;0.90;0.90;;;;;;;;;;5116244;28;20203;-92
2023/09/23 11:37:38;;;;;;;0.85;0.80;;;;;;;;;;5115625;28;20286;-91
2023/09/23 11:40:08;;;;;;;1.40;1.30;;;;;;;;;;5115379;28;20216;-90
2023/09/23 11:42:36;;;;;;;1.33;1.20;;;;;;;;;;5115146;28;20208;-91
2023/09/23 11:45:06;;;;;;;0.80;0.80;;;;;;;;;;5115161;28;20198;-91
2023/09/23 11:47:33;;;;;;;2.05;0.80;;;;;;;;;;5115820;28;20739;-92
2023/09/23 11:50:01;;;;;;;0.98;0.85;;;;;;;;;;5115655;28;20632;-92
2023/09/23 11:52:28;;;;;;;1.02;1.02;;;;;;;;;;5115979;27;20291;-92
2023/09/23 11:54:56;;;;;;;1.30;0.90;;;;;;;;;;5115693;27;20274;-92
2023/09/23 11:57:23;;;;;;;1.52;1.10;;;;;;;;;;5118727;28;20582;-93
2023/09/23 11:59:51;;;;;;;0.80;0.80;;;;;;;;;;5114690;28;20279;-91
2023/09/23 12:02:21;;;;;;;1.10;1.10;;;;;;;;;;5115582;28;20195;-91
2023/09/23 12:04:50;;;;;;;1.27;1.17;;;;;;;;;;5115476;28;20574;-91
2023/09/23 12:07:18;;;;;;;0.57;0.57;;;;;;;;;;5114886;28;20672;-92
2023/09/23 12:09:46;;;;;;;1.33;0.85;;;;;;;;;;5114011;27;20235;-91
2023/09/23 12:12:14;;;;;;;0.65;0.65;;;;;;;;;;5115258;27;20278;-93
2023/09/23 12:14:42;;;;;;;4.25;1.38;;;;;;;;;;5111975;28;20218;-91
2023/09/23 12:17:14;;;;;;;1.00;1.00;;;;;;;;;;5115163;28;20196;-91
2023/09/23 12:19:44;;;;;;;0.70;0.70;;;;;;;;;;5114255;28;20251;-91
2023/09/23 12:22:12;;;;;;;1.65;1.48;;;;;;;;;;5119733;28;20299;-92
2023/09/23 12:24:40;;;;;;;0.90;0.90;;;;;;;;;;5118192;28;20222;-91
2023/09/23 12:27:08;;;;;;;1.85;0.98;;;;;;;;;;5115811;28;20562;-92
2023/09/23 12:29:36;;;;;;;0.65;0.43;;;;;;;;;;5114122;28;20708;-91
2023/09/23 12:32:04;;;;;;;0.63;0.60;;;;;;;;;;5114308;28;20282;-91
2023/09/23 12:34:32;;;;;;;1.55;1.17;;;;;;;;;;5114538;27;20279;-91
2023/09/23 12:37:01;;;;;;;2.08;0.80;;;;;;;;;;5114831;28;20195;-92
2023/09/23 12:39:28;;;;;;;0.82;0.70;;;;;;;;;;5113259;28;20303;-91
2023/09/23 12:41:56;;;;;;;0.80;0.60;;;;;;;;;;5114482;28;20226;-92
2023/09/23 12:44:24;;;;;;;4.15;1.65;;;;;;;;;;5114356;28;20609;-92
2023/09/23 12:46:51;;;;;;;0.70;0.70;;;;;;;;;;5115429;28;20206;-91
2023/09/23 12:49:19;;;;;;;0.50;0.50;;;;;;;;;;5114190;27;20306;-91
2023/09/23 12:51:47;;;;;;;0.60;0.60;;;;;;;;;;5114421;27;20195;-92
2023/09/23 12:54:16;;;;;;;0.60;0.60;;;;;;;;;;5114518;28;20201;-92
2023/09/23 12:56:44;;;;;;;1.20;1.10;;;;;;;;;;5114483;28;20219;-91
2023/09/23 12:59:12;;;;;;;0.55;0.55;;;;;;;;;;5113701;27;20740;-91
2023/09/23 13:01:40;;;;;;;0.68;0.63;;;;;;;;;;5113556;28;20745;-91
2023/09/23 13:04:07;;;;;;;0.77;0.77;;;;;;;;;;5114683;27;20212;-91
2023/09/23 13:06:35;;;;;;;1.48;1.20;;;;;;;;;;5118300;28;20266;-91
2023/09/23 13:09:03;;;;;;;0.60;0.60;;;;;;;;;;5117535;27;20609;-91
2023/09/23 13:11:32;;;;;;;0.70;0.70;;;;;;;;;;5113997;27;20203;-92
2023/09/23 13:14:00;;;;;;;0.70;0.70;;;;;;;;;;5115141;28;20226;-90
2023/09/23 13:16:27;;;;;;;1.83;0.60;;;;;;;;;;5117289;27;20295;-90
2023/09/23 13:18:55;;;;;;;0.50;0.50;;;;;;;;;;5117920;28;20719;-91
2023/09/23 13:21:22;;;;;;;0.70;0.70;;;;;;;;;;5117692;28;20283;-91
2023/09/23 13:23:50;;;;;;;0.60;0.60;;;;;;;;;;5114233;28;20665;-90
2023/09/23 13:26:18;;;;;;;0.50;0.50;;;;;;;;;;5117727;28;20282;-90
2023/09/23 13:28:47;;;;;;;0.65;0.65;;;;;;;;;;5114496;28;20238;-92
2023/09/23 13:31:14;;;;;;;0.85;0.77;;;;;;;;;;5113666;28;20200;-91
2023/09/23 13:33:42;;;;;;;0.75;0.68;;;;;;;;;;5131188;28;20210;-89
2023/09/23 13:36:10;;;;;;;0.50;0.50;;;;;;;;;;5138144;28;20203;-90
2023/09/23 13:38:37;;;;;;;0.52;0.52;;;;;;;;;;5135869;28;20222;-91
2023/09/23 13:41:05;;;;;;;1.08;0.98;;;;;;;;;;5134057;28;20183;-91
2023/09/23 13:43:32;;;;;;;1.25;0.88;;;;;;;;;;5137393;28;20187;-88
2023/09/23 13:46:01;;;;;;;0.57;0.57;;;;;;;;;;5138213;27;20203;-89
2023/09/23 13:48:29;;;;;;;1.00;0.50;;;;;;;;;;5137967;27;20226;-89
2023/09/23 13:50:56;;;;;;;0.80;0.63;;;;;;;;;;5139969;27;20222;-88
2023/09/23 13:53:24;;;;;;;1.02;0.70;;;;;;;;;;5132213;28;20544;-90
2023/09/23 13:55:52;;;;;;;1.10;1.05;;;;;;;;;;5120157;27;20206;-91
2023/09/23 13:58:19;;;;;;;0.40;0.40;;;;;;;;;;5118993;27;20286;-91
2023/09/23 14:00:47;;;;;;;0.80;0.63;;;;;;;;;;5118875;28;20254;-92
2023/09/23 14:03:18;;;;;;;0.65;0.60;;;;;;;;;;5118263;28;20235;-92
2023/09/23 14:05:46;;;;;;;0.65;0.65;;;;;;;;;;5117961;27;20689;-92
2023/09/23 14:08:13;;;;;;;0.60;0.60;;;;;;;;;;5118076;27;20327;-92
2023/09/23 14:10:41;;;;;;;0.60;0.60;;;;;;;;;;5118170;28;20643;-91
2023/09/23 14:13:08;;;;;;;0.93;0.68;;;;;;;;;;5117256;27;20286;-91
2023/09/23 14:15:36;;;;;;;0.60;0.60;;;;;;;;;;5117164;28;20266;-92
2023/09/23 14:18:04;;;;;;;0.85;0.80;;;;;;;;;;5117017;27;20286;-92
2023/09/23 14:20:33;;;;;;;1.42;0.80;;;;;;;;;;5117522;28;20214;-91
2023/09/23 14:23:01;;;;;;;1.17;0.80;;;;;;;;;;5116780;28;20278;-91
2023/09/23 14:25:29;;;;;;;1.83;0.90;;;;;;;;;;5116869;28;20714;-91
2023/09/23 14:27:56;;;;;;;1.33;1.25;;;;;;;;;;5116847;28;20226;-91
2023/09/23 14:30:24;;;;;;;1.05;0.75;;;;;;;;;;5116841;28;20215;-92
2023/09/23 14:32:52;;;;;;;1.05;1.00;;;;;;;;;;5117202;28;20649;-91
2023/09/23 14:35:20;;;;;;;0.60;0.60;;;;;;;;;;5117247;28;20249;-92
2023/09/23 14:37:49;;;;;;;0.80;0.77;;;;;;;;;;5117483;28;20260;-92
2023/09/23 14:40:17;;;;;;;0.98;0.90;;;;;;;;;;5117640;28;20242;-91
2023/09/23 14:42:45;;;;;;;1.08;0.93;;;;;;;;;;5116788;28;20210;-92
2023/09/23 14:45:12;;;;;;;0.90;0.80;;;;;;;;;;5117230;27;20294;-92
2023/09/23 14:47:41;;;;;;;0.65;0.63;;;;;;;;;;5116799;28;20283;-92
2023/09/23 14:50:11;;;;;;;0.63;0.63;;;;;;;;;;5116268;28;20226;-92
2023/09/23 14:52:38;;;;;;;0.77;0.77;;;;;;;;;;5118404;28;20207;-91